• Join FlightAware (Why Join?)
  • Login
  • US Flag 
11:00PM EDT


 

Airport Tracker/Info


-or-


 

Live Flight TrackerFlight Track Log ✈ N112BJ ✈ 24-Mar-2014 ✈ KBGE - KFTY

Flight Track Log - Related Links

Times and Time Zones

All times are in EDT time to prevent confusion due to time zone crossing. See the N112BJ flight status page for this flight to view local times or setup timezone preferences in your user account.

Time Position Orientation Groundspeed Altitude Reporting Facility
EDT Latitude Longitude Course Direction KTS MPH feet Rate Location/Type
07:19PM 31.0903 -84.5956 346° North 252 290 7,500  Level Jacksonville Center
07:20PM 31.1631 -84.6164 346° North 259 298 11,300 3,240 Climbing Jacksonville Center
07:21PM 31.2400 -84.6444 343° North 264 304 14,000 2,520 Climbing Jacksonville Center
07:22PM 31.3189 -84.6678 346° North 277 319 16,500 1,980 Climbing Jacksonville Center
07:23PM 31.4000 -84.6914 346° North 289 333 18,000 720 Climbing Jacksonville Center
07:24PM 31.4956 -84.7225 344° North 317 365 18,000  Level Jacksonville Center
07:25PM 31.5956 -84.7536 345° North 351 404 18,000  Level Jacksonville Center
07:26PM 31.6608 -84.7733 346° North 379 436 18,000  Level Atlanta Center
07:27PM 31.7608 -84.8033 346° North 385 443 18,000  Level Atlanta Center
07:28PM 31.8631 -84.8336 346° North 379 436 18,000  Level Atlanta Center
07:29PM 31.9608 -84.8664 344° North 373 429 18,000  Level Atlanta Center
07:30PM 32.0589 -84.8992 344° North 368 423 18,000  Level Atlanta Center
07:31PM 32.1608 -84.9294 346° North 368 423 18,000  Level Atlanta Center
07:32PM 32.2753 -84.9625 346° North 374 430 18,000  Level Atlanta Center
07:33PM 32.3775 -84.9956 345° North 379 436 18,000  Level Atlanta Center
07:34PM 32.4817 -85.0261 346° North 379 436 18,000  Level Atlanta Center
07:35PM 32.5878 -85.0594 345° North 379 436 18,000 -120 Level Atlanta Center
07:36PM 32.6878 -85.0903 345° North 379 436 17,800 -1,140 Descending Atlanta Center
07:37PM 32.7917 -85.1236 345° North 379 436 15,800 -2,040 Descending Atlanta Center
07:38PM 32.8894 -85.1544 345° North 379 436 13,800 -1,920 Descending Atlanta Center
07:39PM 32.9853 -85.1853 345° North 356 410 12,000 -1,380 Descending Atlanta Center
07:40PM 33.0750 -85.2064 349° North 356 410 11,100 -540 Descending Atlanta Center
07:41PM 33.1775 -85.1781 13° North 370 426 11,000 -60 Descending Atlanta Center
07:42PM 33.2717 -85.1444 17° North 362 417 11,000 -360 Level Atlanta Center
07:43PM 33.3594 -85.1231 12° North 334 384 10,300 -1,380 Descending Atlanta Center
07:44PM 33.4411 -85.1067 10° North 309 356 8,300 -2,040 Descending Atlanta Center
07:45PM 33.5225 -85.1028 North 295 339 6,300 -2,100 Descending Atlanta Center
07:46PM 33.6081 -85.0964 North 289 333 4,200 -1,680 Descending Atlanta Center
07:47PM 33.6772 -85.0622 22° Northeast 276 318 3,000 -600 Descending Atlanta Center
07:48PM 33.7133 -84.9928 58° Northeast 240 276 3,000 7,080 Level Atlanta Center
07:50PM 33.7333 -84.8167 82° East 225 259 26,600  Climbing Atlanta TRACON
07:51PM 33.7500 -84.7500 73° East 215 247 3,000 -11,820 Descending Atlanta TRACON
07:52PM 33.7500 -84.6833 90° East 202 232 3,000 -300 Level Atlanta TRACON
07:53PM 33.7667 -84.6167 73° East 181 208 2,500 -780 Descending Atlanta TRACON
07:54PM 33.7667 -84.5667 90° East 143 165 1,500 -1,020 Descending Atlanta TRACON
07:56PM 33.7791 -84.5214 72° East  Level Estimated
08:03PM 33.7791 -84.5214 90° East  Level Estimated
08:04PM 33.7791 -84.5214 90° East  Level Estimated